Terminal Aerodrome Forecast
Issued by NWS Denver/Boulder, CO

Home | Current Version | Previous Version | Text Only | Print | Product List | Glossary On
Versions: 1 2 3 4 5 6 7 8 9 10 11 12 13 14 15 16 17 18 19 20 21 22 23 24 25 26 27 28 29 30 31 32 33 34 35 36 37 38 39
000
FTUS45 KBOU 200841 AAC
TAFDEN
TAF AMD
KDEN 200841Z 2009/2112 22010KT P6SM FEW110 SCT200
     FM201400 28007KT P6SM SCT140 BKN200
     FM201700 35011KT P6SM SCT120 BKN160
     FM202100 03013KT P6SM VCSH SCT090 BKN130
     FM210100 35010KT P6SM SCT130 BKN200
     FM210500 28007KT P6SM FEW140 SCT220
     FM211000 04009KT P6SM FEW040 SCT070 SCT110=

USA.gov is the U.S. government's official web portal to all federal, state and local government web resources and services.